Time;durP1;ratioP1;P1;durP2;ratioP2;P2;SDS_P1;SDS_P2;PMS_P1;PMS_P2;Temp;Humidity;BMP_temperature;BMP_pressure;BME280_temperature;BME280_humidity;BME280_pressure;Samples;Min_cycle;Max_cycle;Signal;HPM_P1;HPM_P2
2021/04/21 00:00:51;;;;;;;26.90;19.57;;;11.30;91.20;;;;;;4979117;28;20023;-79
2021/04/21 00:03:18;;;;;;;28.40;19.53;;;11.30;91.40;;;;;;4977439;28;20502;-78
2021/04/21 00:05:47;;;;;;;32.60;20.43;;;11.10;91.50;;;;;;4978518;28;20316;-78
2021/04/21 00:08:12;;;;;;;31.52;19.58;;;11.00;91.70;;;;;;4979011;28;20034;-78
2021/04/21 00:10:39;;;;;;;29.90;20.23;;;10.90;91.90;;;;;;4960947;28;20043;-79
2021/04/21 00:13:08;;;;;;;26.53;19.70;;;10.80;92.10;;;;;;4960720;28;20086;-78
2021/04/21 00:15:34;;;;;;;28.33;19.63;;;10.70;92.20;;;;;;4978624;28;20026;-78
2021/04/21 00:18:03;;;;;;;27.77;19.63;;;10.70;92.50;;;;;;4978420;28;20053;-79
2021/04/21 00:20:30;;;;;;;29.05;20.50;;;10.60;92.60;;;;;;4979043;28;20023;-79
2021/04/21 00:22:59;;;;;;;31.73;20.67;;;10.60;92.60;;;;;;4979471;28;20074;-78
2021/04/21 00:25:31;;;;;;;27.67;19.45;;;10.50;92.50;;;;;;4979290;28;20054;-78
2021/04/21 00:27:58;;;;;;;30.77;19.77;;;10.50;92.60;;;;;;4977879;28;20027;-78
2021/04/21 00:30:27;;;;;;;29.30;19.07;;;10.40;92.60;;;;;;4982909;28;20034;-78
2021/04/21 00:32:56;;;;;;;31.33;19.77;;;10.40;92.50;;;;;;4981477;28;20350;-78
2021/04/21 00:35:25;;;;;;;28.75;19.52;;;10.30;92.80;;;;;;4983058;28;20022;-78
2021/04/21 00:37:58;;;;;;;31.13;19.60;;;10.20;92.90;;;;;;4981129;28;20053;-78
2021/04/21 00:40:44;;;;;;;33.17;19.73;;;10.30;92.80;;;;;;4965079;28;20026;-78
2021/04/21 00:43:18;;;;;;;28.27;18.90;;;10.30;92.60;;;;;;4952482;28;20046;-81
2021/04/21 00:45:48;;;;;;;29.77;20.13;;;10.30;92.50;;;;;;4965680;28;20034;-80
2021/04/21 00:48:30;;;;;;;29.37;19.43;;;10.20;92.70;;;;;;4984741;28;20061;-81
2021/04/21 00:51:00;;;;;;;31.97;20.17;;;10.20;92.90;;;;;;4967816;28;20031;-81
2021/04/21 00:53:44;;;;;;;27.43;19.23;;;10.30;92.60;;;;;;4985023;28;20031;-81
2021/04/21 00:56:50;;;;;;;29.87;20.00;;;10.30;92.60;;;;;;4985666;28;20142;-81
2021/04/21 00:59:49;;;;;;;29.87;20.90;;;10.20;92.80;;;;;;4982671;28;20027;-81
2021/04/21 01:02:18;;;;;;;35.03;20.95;;;10.10;93.10;;;;;;4985588;28;20113;-81
2021/04/21 01:04:43;;;;;;;;;;;10.10;93.00;;;;;;4981646;28;20121;-81
2021/04/21 01:07:11;;;;;;;32.00;21.73;;;10.00;93.10;;;;;;4970009;28;19909;-81
2021/04/21 01:09:39;;;;;;;33.67;21.40;;;9.90;93.20;;;;;;4998073;23;20022;-79
2021/04/21 01:12:09;;;;;;;33.77;20.77;;;10.00;93.20;;;;;;4993808;28;20026;-78
2021/04/21 01:14:47;;;;;;;31.47;20.50;;;10.00;93.20;;;;;;4993755;28;20021;-78
2021/04/21 01:17:15;;;;;;;32.53;20.60;;;9.90;93.10;;;;;;4993666;28;20105;-81
2021/04/21 01:19:56;;;;;;;30.63;20.80;;;10.00;93.30;;;;;;4993561;28;20038;-81
2021/04/21 01:22:36;;;;;;;32.87;21.03;;;9.90;93.20;;;;;;4993372;28;20030;-80
2021/04/21 01:25:31;;;;;;;30.73;21.17;;;9.80;93.50;;;;;;4993633;28;20026;-79
2021/04/21 01:28:08;;;;;;;35.63;22.37;;;9.90;93.30;;;;;;4993620;28;20081;-79
2021/04/21 01:30:36;;;;;;;30.90;21.03;;;9.80;93.30;;;;;;4993643;28;20146;-81
2021/04/21 01:33:07;;;;;;;33.37;21.03;;;9.80;93.30;;;;;;4993388;28;20034;-80
2021/04/21 01:35:33;;;;;;;32.97;21.37;;;9.70;93.40;;;;;;4993574;28;20089;-81
2021/04/21 01:38:03;;;;;;;33.83;22.90;;;9.70;93.50;;;;;;4993297;28;20018;-81
2021/04/21 01:40:36;;;;;;;37.20;23.80;;;9.70;93.50;;;;;;4992880;28;20105;-79
2021/04/21 01:43:08;;;;;;;36.97;23.27;;;9.70;93.50;;;;;;4975224;28;20023;-81
2021/04/21 01:45:35;;;;;;;37.73;23.83;;;9.70;93.40;;;;;;4993346;28;20098;-78
2021/04/21 01:48:08;;;;;;;36.30;23.87;;;9.70;93.70;;;;;;4992794;28;20069;-81
2021/04/21 01:50:34;;;;;;;37.33;23.60;;;9.70;93.60;;;;;;4975045;28;20077;-81
2021/04/21 01:53:18;;;;;;;40.50;23.97;;;9.70;93.50;;;;;;4992717;28;20475;-81
2021/04/21 01:55:51;;;;;;;35.37;23.73;;;9.70;93.50;;;;;;4992738;28;20085;-81
2021/04/21 01:58:44;;;;;;;37.63;23.27;;;9.70;93.50;;;;;;4992674;28;20023;-81
2021/04/21 02:01:20;;;;;;;34.13;22.03;;;9.60;93.60;;;;;;4992457;28;20054;-80
2021/04/21 02:03:50;;;;;;;32.83;23.10;;;9.70;93.40;;;;;;4992490;28;20019;-80
2021/04/21 02:06:51;;;;;;;34.60;23.93;;;9.60;93.70;;;;;;4991690;28;20202;-81
2021/04/21 02:09:48;;;;;;;36.97;24.10;;;9.50;93.70;;;;;;4991749;28;20023;-80
2021/04/21 02:12:35;;;;;;;35.97;23.53;;;9.60;93.80;;;;;;4992557;28;20088;-81
2021/04/21 02:15:21;;;;;;;39.43;24.17;;;9.60;93.80;;;;;;4990992;28;20026;-80
2021/04/21 02:18:02;;;;;;;36.33;23.70;;;9.60;93.60;;;;;;4992374;28;20424;-80
2021/04/21 02:20:33;;;;;;;39.43;24.37;;;9.60;93.60;;;;;;4992518;28;20094;-80
2021/04/21 02:23:08;;;;;;;39.63;24.77;;;9.60;93.50;;;;;;4992652;28;20023;-81
2021/04/21 02:26:04;;;;;;;37.50;23.87;;;9.60;93.50;;;;;;4975258;28;20464;-81
2021/04/21 02:29:09;;;;;;;36.40;23.50;;;9.60;93.30;;;;;;4992790;28;20077;-81
2021/04/21 02:31:43;;;;;;;38.50;24.70;;;9.60;93.40;;;;;;4976086;28;20038;-79
2021/04/21 02:34:38;;;;;;;39.13;26.20;;;9.50;93.50;;;;;;4992577;28;20030;-80
2021/04/21 02:37:18;;;;;;;39.37;26.03;;;9.40;93.60;;;;;;4992775;28;20030;-81
2021/04/21 02:40:14;;;;;;;43.53;27.13;;;9.30;94.00;;;;;;4991866;28;20033;-81
2021/04/21 02:42:49;;;;;;;39.20;26.53;;;9.30;93.90;;;;;;4992222;28;20030;-81
2021/04/21 02:45:37;;;;;;;42.30;27.13;;;9.40;93.80;;;;;;4992275;28;20041;-81
2021/04/21 02:48:12;;;;;;;42.15;27.60;;;9.30;94.00;;;;;;4991902;28;20022;-80
2021/04/21 02:50:46;;;;;;;44.70;28.00;;;9.40;93.90;;;;;;4990970;28;20439;-81
2021/04/21 02:53:28;;;;;;;41.83;27.70;;;9.20;94.00;;;;;;4992035;28;20030;-80
2021/04/21 02:56:07;;;;;;;42.20;28.27;;;9.20;94.10;;;;;;4991817;28;20033;-81
2021/04/21 02:59:32;;;;;;;42.25;27.58;;;9.30;94.10;;;;;;4991863;28;20057;-82
2021/04/21 03:02:06;;;;;;;43.63;28.07;;;9.20;94.00;;;;;;4912603;29;20408;-81
2021/04/21 03:04:49;;;;;;;42.80;27.87;;;9.20;94.30;;;;;;4912750;29;20025;-81
2021/04/21 03:07:22;;;;;;;46.23;29.40;;;9.30;93.90;;;;;;4958234;28;20042;-81
2021/04/21 03:10:02;;;;;;;43.10;27.27;;;9.20;94.10;;;;;;4991570;28;20035;-88
2021/04/21 03:12:29;;;;;;;46.60;29.17;;;9.20;94.10;;;;;;4971136;28;20491;-83
2021/04/21 03:15:01;;;;;;;43.50;28.10;;;9.30;94.00;;;;;;4974314;28;20132;-84
2021/04/21 03:17:27;;;;;;;45.33;29.50;;;9.40;93.80;;;;;;4991835;28;20558;-81
2021/04/21 03:19:56;;;;;;;49.17;29.20;;;9.40;93.70;;;;;;4991113;28;20105;-81
2021/04/21 03:22:27;;;;;;;50.38;28.27;;;9.30;94.00;;;;;;4991749;28;20050;-80
2021/04/21 03:25:13;;;;;;;43.07;28.23;;;9.30;93.90;;;;;;4992310;28;20387;-81
2021/04/21 03:27:47;;;;;;;44.83;29.17;;;9.30;94.00;;;;;;4990402;28;20041;-80
2021/04/21 03:30:16;;;;;;;44.63;29.43;;;9.30;94.10;;;;;;4991746;28;20026;-81
2021/04/21 03:32:48;;;;;;;48.00;29.65;;;9.20;94.30;;;;;;4991765;28;20027;-86
2021/04/21 03:35:14;;;;;;;48.07;30.63;;;9.10;94.90;;;;;;4991958;28;20034;-81
2021/04/21 03:38:08;;;;;;;52.20;31.50;;;8.90;96.30;;;;;;4995681;28;20644;-80
2021/04/21 03:40:35;;;;;;;50.73;31.43;;;8.90;95.60;;;;;;4992452;28;20034;-81
2021/04/21 03:43:03;;;;;;;51.57;31.30;;;8.90;95.40;;;;;;4993052;28;20015;-81
2021/04/21 03:45:30;;;;;;;51.13;31.43;;;8.80;95.40;;;;;;4992647;28;20426;-81
2021/04/21 03:47:57;;;;;;;53.27;32.87;;;8.80;95.60;;;;;;4992467;28;20022;-81
2021/04/21 03:50:24;;;;;;;53.83;31.43;;;8.70;95.90;;;;;;4991596;28;20022;-81
2021/04/21 03:52:54;;;;;;;48.97;31.27;;;8.80;95.50;;;;;;4992217;28;20525;-81
2021/04/21 03:55:20;;;;;;;52.73;31.47;;;8.70;95.70;;;;;;4974589;28;20053;-81
2021/04/21 03:57:48;;;;;;;53.03;32.37;;;8.80;95.80;;;;;;4992024;28;20389;-81
2021/04/21 04:00:17;;;;;;;50.50;32.03;;;8.70;95.70;;;;;;4991968;28;20465;-81
2021/04/21 04:02:57;;;;;;;52.57;31.50;;;8.60;95.70;;;;;;4994340;28;20018;-81
2021/04/21 04:05:27;;;;;;;52.90;31.70;;;8.60;95.70;;;;;;4995877;28;20045;-80
2021/04/21 04:07:56;;;;;;;54.40;31.70;;;8.60;95.70;;;;;;4995660;28;20018;-81
2021/04/21 04:10:25;;;;;;;51.00;30.27;;;8.60;95.80;;;;;;4994753;28;20117;-81
2021/04/21 04:12:54;;;;;;;53.07;31.63;;;8.60;95.80;;;;;;4995082;28;20030;-81
2021/04/21 04:15:21;;;;;;;51.80;31.25;;;8.60;95.90;;;;;;4995898;28;20052;-81
2021/04/21 04:17:49;;;;;;;48.70;30.53;;;8.50;95.80;;;;;;4996190;28;20054;-81
2021/04/21 04:20:17;;;;;;;52.70;30.93;;;8.70;95.60;;;;;;4977357;28;20025;-86
2021/04/21 04:22:46;;;;;;;50.93;32.40;;;8.70;95.70;;;;;;4994565;28;20542;-85
2021/04/21 04:25:13;;;;;;;51.13;31.67;;;8.70;95.70;;;;;;4995662;28;20031;-87
2021/04/21 04:27:39;;;;;;;54.87;32.53;;;8.70;95.70;;;;;;4977918;28;20038;-85
2021/04/21 04:30:06;;;;;;;48.70;31.00;;;8.90;95.30;;;;;;4996906;28;20026;-81
2021/04/21 04:32:37;;;;;;;53.13;31.33;;;9.00;95.20;;;;;;4996913;28;20113;-85
2021/04/21 04:35:03;;;;;;;48.67;30.93;;;9.10;95.00;;;;;;4996007;28;20076;-80
2021/04/21 04:37:30;;;;;;;48.50;31.00;;;9.10;95.00;;;;;;4995069;28;20022;-81
2021/04/21 04:39:56;;;;;;;48.87;31.10;;;9.10;94.90;;;;;;4975849;28;20018;-80
2021/04/21 04:42:22;;;;;;;47.50;29.83;;;9.20;94.80;;;;;;4993890;28;20027;-81
2021/04/21 04:44:49;;;;;;;46.13;30.47;;;9.20;94.60;;;;;;4994761;28;20033;-81
2021/04/21 04:47:22;;;;;;;46.13;29.77;;;9.30;94.60;;;;;;4995983;28;20038;-81
2021/04/21 04:49:50;;;;;;;47.43;29.53;;;9.30;94.80;;;;;;4995367;28;20019;-83
2021/04/21 04:52:20;;;;;;;48.45;29.40;;;9.20;95.00;;;;;;4994393;28;20037;-82
2021/04/21 04:54:47;;;;;;;47.33;28.65;;;9.30;94.80;;;;;;4978530;28;20042;-83
2021/04/21 04:57:17;;;;;;;45.83;29.70;;;9.40;94.60;;;;;;4978551;28;20029;-83
2021/04/21 04:59:48;;;;;;;51.07;30.67;;;9.30;94.40;;;;;;4978781;28;20474;-84
2021/04/21 05:02:18;;;;;;;47.00;29.70;;;9.30;94.50;;;;;;4996279;28;20097;-83
2021/04/21 05:04:58;;;;;;;51.00;30.87;;;9.30;94.40;;;;;;4995679;28;20018;-82
2021/04/21 05:07:34;;;;;;;50.10;30.73;;;9.30;94.40;;;;;;4995389;28;20073;-85
2021/04/21 05:10:04;;;;;;;55.10;31.37;;;9.30;94.30;;;;;;4976323;28;20038;-85
2021/04/21 05:12:36;;;;;;;49.10;31.50;;;9.30;94.80;;;;;;4994037;28;20026;-83
2021/04/21 05:15:02;;;;;;;48.97;31.97;;;9.20;94.70;;;;;;4995610;28;20050;-81
2021/04/21 05:17:56;;;;;;;56.47;31.97;;;9.30;94.60;;;;;;4994877;28;20093;-80
2021/04/21 05:20:50;;;;;;;55.87;33.03;;;9.30;94.70;;;;;;4977836;28;20046;-82
2021/04/21 05:23:27;;;;;;;51.90;32.17;;;9.30;94.50;;;;;;4996035;28;20098;-82
2021/04/21 05:26:18;;;;;;;51.43;32.10;;;9.20;94.60;;;;;;4994475;28;20483;-81
2021/04/21 05:29:25;;;;;;;53.10;34.40;;;9.40;94.50;;;;;;4994846;28;20026;-81
2021/04/21 05:32:02;;;;;;;53.30;34.67;;;9.40;94.50;;;;;;4998108;28;20149;-82
2021/04/21 05:35:07;;;;;;;50.83;33.83;;;9.50;94.40;;;;;;4996291;28;20096;-82
2021/04/21 05:37:54;;;;;;;55.10;32.73;;;9.60;94.30;;;;;;4997744;28;20030;-83
2021/04/21 05:40:38;;;;;;;52.03;32.40;;;9.60;94.30;;;;;;4992975;28;20447;-80
2021/04/21 05:43:25;;;;;;;56.90;33.10;;;9.60;94.40;;;;;;4993162;28;20498;-80
2021/04/21 05:46:19;;;;;;;59.13;32.77;;;9.60;94.50;;;;;;4976843;28;20029;-85
2021/04/21 05:49:06;;;;;;;57.73;34.37;;;9.60;94.80;;;;;;4992157;28;20031;-81
2021/04/21 05:51:46;;;;;;;55.27;35.57;;;9.60;94.70;;;;;;4994353;28;20030;-84
2021/04/21 05:54:39;;;;;;;54.23;34.43;;;9.60;94.70;;;;;;4993476;28;20019;-80
2021/04/21 05:57:13;;;;;;;59.17;34.63;;;9.70;94.60;;;;;;4993690;28;20030;-85
2021/04/21 06:00:06;;;;;;;52.63;33.23;;;9.70;94.60;;;;;;4993566;28;20030;-85
2021/04/21 06:02:34;;;;;;;56.93;35.13;;;9.80;94.60;;;;;;4993013;28;20022;-85
2021/04/21 06:05:13;;;;;;;56.57;33.63;;;9.80;94.60;;;;;;4975983;28;20019;-83
2021/04/21 06:07:41;;;;;;;57.47;35.03;;;10.00;94.80;;;;;;4975068;28;20041;-82
2021/04/21 06:10:27;;;;;;;54.40;34.35;;;10.10;94.60;;;;;;4975088;28;20046;-85
2021/04/21 06:13:01;;;;;;;59.27;34.53;;;10.20;94.50;;;;;;4975926;28;20018;-84
2021/04/21 06:15:28;;;;;;;53.77;33.97;;;10.20;94.60;;;;;;4975737;28;20042;-84
2021/04/21 06:17:59;;;;;;;55.57;33.23;;;10.20;94.40;;;;;;4976252;28;20089;-81
2021/04/21 06:20:42;;;;;;;57.50;35.20;;;10.20;94.50;;;;;;4975272;28;20023;-85
2021/04/21 06:23:14;;;;;;;61.27;33.77;;;10.30;94.80;;;;;;4992644;28;20042;-79
2021/04/21 06:25:45;;;;;;;51.83;33.83;;;10.40;94.70;;;;;;4974326;28;20037;-79
2021/04/21 06:28:22;;;;;;;52.67;33.70;;;10.40;94.30;;;;;;4992209;28;20459;-82
2021/04/21 06:30:50;;;;;;;57.00;35.47;;;10.50;94.30;;;;;;4994833;28;20335;-83
2021/04/21 06:33:17;;;;;;;58.75;36.97;;;10.50;94.20;;;;;;5009594;28;20036;-83
2021/04/21 06:35:43;;;;;;;58.97;34.90;;;10.60;94.10;;;;;;4995355;28;20057;-83
2021/04/21 06:38:10;;;;;;;58.10;35.00;;;10.70;94.20;;;;;;5001798;28;20030;-84
2021/04/21 06:40:38;;;;;;;52.37;35.53;;;10.70;94.10;;;;;;4974781;28;20479;-82
2021/04/21 06:43:04;;;;;;;54.97;34.83;;;10.70;93.90;;;;;;4992060;28;20428;-82
2021/04/21 06:45:33;;;;;;;56.97;33.53;;;10.80;93.80;;;;;;4992549;28;20033;-82
2021/04/21 06:48:02;;;;;;;49.83;32.90;;;10.80;93.80;;;;;;4992033;28;20026;-83
2021/04/21 06:50:33;;;;;;;51.77;32.80;;;10.90;94.10;;;;;;4992198;28;20055;-83
2021/04/21 06:53:04;;;;;;;53.23;34.07;;;10.90;93.90;;;;;;4991947;28;20046;-83
2021/04/21 06:55:31;;;;;;;53.93;33.57;;;10.90;93.50;;;;;;4974583;28;20030;-82
2021/04/21 06:58:00;;;;;;;48.57;31.33;;;11.00;93.50;;;;;;4992298;28;20446;-83
2021/04/21 07:00:26;;;;;;;;;;;11.10;93.50;;;;;;4975112;28;20027;-83
2021/04/21 07:03:01;;;;;;;50.00;31.43;;;11.20;93.50;;;;;;4974019;28;19941;-83
2021/04/21 07:05:39;;;;;;;54.00;32.97;;;11.20;93.00;;;;;;4975426;28;20096;-86
2021/04/21 07:08:10;;;;;;;47.33;32.30;;;11.20;92.90;;;;;;4974915;28;20046;-85
2021/04/21 07:10:49;;;;;;;44.97;30.33;;;11.30;93.00;;;;;;4974322;28;20040;-87
2021/04/21 07:13:44;;;;;;;46.83;32.10;;;11.40;92.80;;;;;;4975596;28;20034;-87
2021/04/21 07:16:44;;;;;;;48.23;31.00;;;11.40;92.60;;;;;;4975030;28;20037;-86
2021/04/21 07:19:12;;;;;;;49.27;30.43;;;11.50;92.30;;;;;;4969781;28;20062;-86
2021/04/21 07:21:40;;;;;;;47.70;31.33;;;11.60;93.20;;;;;;4975805;28;20113;-84
2021/04/21 07:24:08;;;;;;;44.00;29.90;;;11.70;92.70;;;;;;4994419;28;20018;-84
2021/04/21 07:26:37;;;;;;;51.40;32.73;;;11.80;92.80;;;;;;4994357;28;20491;-86
2021/04/21 07:29:06;;;;;;;48.58;31.98;;;11.90;94.00;;;;;;4977046;28;20491;-85
2021/04/21 07:31:36;;;;;;;55.75;34.95;;;11.90;92.30;;;;;;4992014;28;20034;-82
2021/04/21 07:34:02;;;;;;;47.63;32.17;;;11.90;92.00;;;;;;4992319;28;20029;-82
2021/04/21 07:36:28;;;;;;;47.70;30.40;;;11.90;92.20;;;;;;4993194;28;20034;-83
2021/04/21 07:38:55;;;;;;;45.80;32.10;;;12.00;92.10;;;;;;4993366;28;20033;-83
2021/04/21 07:42:08;;;;;;;49.03;31.20;;;12.00;92.00;;;;;;4995335;28;20448;-84
2021/04/21 07:44:37;;;;;;;48.20;31.67;;;12.10;92.40;;;;;;4940953;28;20030;-87
2021/04/21 07:47:06;;;;;;;44.03;29.70;;;12.00;91.90;;;;;;4983608;28;20093;-82
2021/04/21 07:49:35;;;;;;;47.53;31.85;;;12.10;92.00;;;;;;4985395;28;20027;-83
2021/04/21 07:52:01;;;;;;;44.58;30.90;;;12.10;91.90;;;;;;5002161;28;20023;-82
2021/04/21 07:54:29;;;;;;;46.20;31.47;;;12.10;91.90;;;;;;4999362;28;20100;-83
2021/04/21 07:57:01;;;;;;;47.30;30.90;;;12.20;91.80;;;;;;5003867;28;20086;-83
2021/04/21 07:59:33;;;;;;;58.80;35.20;;;12.20;92.00;;;;;;4989657;28;20023;-82
2021/04/21 08:02:11;;;;;;;56.50;35.63;;;12.20;91.80;;;;;;5011596;28;20033;-83
2021/04/21 08:04:56;;;;;;;57.87;34.37;;;12.20;92.00;;;;;;4983996;28;20049;-83
2021/04/21 08:07:32;;;;;;;66.03;37.03;;;12.20;91.80;;;;;;4986468;28;20042;-84
2021/04/21 08:09:58;;;;;;;53.87;34.57;;;12.20;91.60;;;;;;5006914;28;20504;-86
2021/04/21 08:12:33;;;;;;;57.17;35.03;;;12.20;91.50;;;;;;5000527;28;20114;-83
2021/04/21 08:15:02;;;;;;;65.10;38.50;;;12.20;91.40;;;;;;4992348;28;20077;-82
2021/04/21 08:17:28;;;;;;;66.57;36.53;;;12.20;91.10;;;;;;4974654;28;20026;-81
2021/04/21 08:19:58;;;;;;;50.17;33.70;;;12.30;91.00;;;;;;4991287;28;20037;-81
2021/04/21 08:22:29;;;;;;;56.07;34.63;;;12.30;91.10;;;;;;4991103;28;20022;-81
2021/04/21 08:24:57;;;;;;;65.07;36.57;;;12.30;90.80;;;;;;4990899;28;20420;-81
2021/04/21 08:27:24;;;;;;;54.97;34.20;;;12.30;90.30;;;;;;4990641;28;20309;-81
2021/04/21 08:29:51;;;;;;;54.07;31.60;;;12.20;90.70;;;;;;4990057;28;20069;-81
2021/04/21 08:32:19;;;;;;;61.30;34.33;;;12.30;90.60;;;;;;4990684;28;20395;-81
2021/04/21 08:34:47;;;;;;;47.50;28.67;;;12.40;90.30;;;;;;4972943;28;20022;-81
2021/04/21 08:37:13;;;;;;;59.90;32.77;;;12.40;90.30;;;;;;4990720;28;20025;-81
2021/04/21 08:39:40;;;;;;;50.70;31.93;;;12.40;90.10;;;;;;4990317;28;20022;-81
2021/04/21 08:42:07;;;;;;;57.57;30.43;;;12.50;90.40;;;;;;4972787;28;20026;-81
2021/04/21 08:44:36;;;;;;;57.80;30.33;;;12.50;89.70;;;;;;4990538;28;20364;-81
2021/04/21 08:47:06;;;;;;;55.03;30.03;;;12.50;89.30;;;;;;4990690;28;20027;-83
2021/04/21 08:49:32;;;;;;;53.50;30.70;;;12.50;90.20;;;;;;4974126;28;20026;-84
2021/04/21 08:52:00;;;;;;;51.40;31.03;;;12.50;90.00;;;;;;4976629;28;20494;-82
2021/04/21 08:54:28;;;;;;;60.40;31.43;;;12.60;90.20;;;;;;4995808;28;20494;-85
2021/04/21 08:56:55;;;;;;;56.22;31.25;;;12.60;89.40;;;;;;4977980;28;20489;-85
2021/04/21 08:59:21;;;;;;;55.67;30.57;;;12.70;90.50;;;;;;4994454;28;20060;-85
2021/04/21 09:01:47;;;;;;;50.73;28.87;;;12.70;89.20;;;;;;4996552;28;20057;-84
2021/04/21 09:04:15;;;;;;;52.50;29.37;;;12.70;89.40;;;;;;4995535;28;20022;-83
2021/04/21 09:06:42;;;;;;;41.43;25.43;;;12.80;87.80;;;;;;4994587;28;20034;-82
2021/04/21 09:09:09;;;;;;;51.30;26.00;;;12.90;88.50;;;;;;4995792;28;20044;-82
2021/04/21 09:11:35;;;;;;;39.83;23.57;;;13.00;86.80;;;;;;4995819;28;20031;-81
2021/04/21 09:14:01;;;;;;;42.43;24.77;;;12.90;85.60;;;;;;4995107;28;20042;-82
2021/04/21 09:16:26;;;;;;;39.83;22.90;;;12.90;84.00;;;;;;4978126;28;20407;-82
2021/04/21 09:18:52;;;;;;;33.67;20.77;;;12.90;84.10;;;;;;4996523;28;20026;-83
2021/04/21 09:21:20;;;;;;;41.00;22.23;;;13.00;84.20;;;;;;4995642;28;20030;-82
2021/04/21 09:23:47;;;;;;;43.70;21.53;;;13.00;83.10;;;;;;4978815;28;20026;-82
2021/04/21 09:26:18;;;;;;;41.50;21.13;;;13.10;83.20;;;;;;4996784;28;20454;-81
2021/04/21 09:28:49;;;;;;;39.43;20.13;;;13.10;83.30;;;;;;4997140;28;20108;-83
2021/04/21 09:31:18;;;;;;;36.43;20.37;;;13.10;81.90;;;;;;4995748;28;20034;-83
2021/04/21 09:33:45;;;;;;;35.30;19.88;;;13.10;81.80;;;;;;4995820;28;20085;-83
2021/04/21 09:36:11;;;;;;;37.03;19.33;;;13.10;82.20;;;;;;4997250;28;20033;-83
2021/04/21 09:38:37;;;;;;;33.20;17.90;;;13.20;82.10;;;;;;4996098;28;20023;-83
2021/04/21 09:41:26;;;;;;;31.53;17.80;;;13.30;82.20;;;;;;4977465;28;20039;-83
2021/04/21 09:43:52;;;;;;;;;;;13.30;81.90;;;;;;4977884;28;20033;-82
2021/04/21 09:46:20;;;;;;;30.03;16.70;;;13.40;82.20;;;;;;4995075;28;19911;-82
2021/04/21 09:48:47;;;;;;;28.60;17.33;;;13.50;80.30;;;;;;4995753;28;20539;-82
2021/04/21 09:51:16;;;;;;;28.73;16.90;;;13.50;80.00;;;;;;4994773;28;20045;-82
2021/04/21 09:53:46;;;;;;;27.60;15.90;;;13.60;80.50;;;;;;4994663;28;20038;-83
2021/04/21 09:56:20;;;;;;;23.43;16.33;;;13.60;79.60;;;;;;4993582;28;20041;-85
2021/04/21 09:58:56;;;;;;;23.40;15.17;;;13.60;78.80;;;;;;4993241;28;20022;-82
2021/04/21 10:01:28;;;;;;;24.23;14.37;;;13.70;79.00;;;;;;4975496;28;20018;-82
2021/04/21 10:04:12;;;;;;;23.27;15.55;;;13.70;77.50;;;;;;4993464;28;20050;-83
2021/04/21 10:06:51;;;;;;;24.35;16.20;;;13.80;76.00;;;;;;4994746;28;20029;-87
2021/04/21 10:09:27;;;;;;;26.15;15.45;;;13.90;75.00;;;;;;4976288;28;20076;-83
2021/04/21 10:12:12;;;;;;;20.85;14.35;;;13.90;74.40;;;;;;4994187;28;20042;-83
2021/04/21 10:14:37;;;;;;;21.20;13.55;;;13.90;75.10;;;;;;4976907;28;20517;-83
2021/04/21 10:17:04;;;;;;;20.70;13.70;;;14.10;73.70;;;;;;4994320;28;20047;-84
2021/04/21 10:19:31;;;;;;;24.40;14.20;;;14.10;73.30;;;;;;4975933;28;20019;-83
2021/04/21 10:21:56;;;;;;;27.23;13.48;;;14.20;74.10;;;;;;4994082;28;20031;-84
2021/04/21 10:24:22;;;;;;;19.13;12.07;;;14.30;74.50;;;;;;4976550;28;20368;-83
2021/04/21 10:26:48;;;;;;;23.10;13.05;;;14.30;74.50;;;;;;4976697;28;20034;-84
2021/04/21 10:29:15;;;;;;;31.10;12.90;;;14.40;74.20;;;;;;4993611;28;20034;-84
2021/04/21 10:31:40;;;;;;;19.88;12.10;;;14.40;74.00;;;;;;4976769;28;20027;-83
2021/04/21 10:34:09;;;;;;;20.52;12.43;;;14.50;72.80;;;;;;4994000;28;20077;-83
2021/04/21 10:36:35;;;;;;;20.75;11.52;;;14.60;71.50;;;;;;4976888;28;20113;-83
2021/04/21 10:39:01;;;;;;;19.88;11.38;;;14.60;70.80;;;;;;4994441;28;20081;-84
2021/04/21 10:41:36;;;;;;;18.58;10.77;;;14.60;71.10;;;;;;4994190;28;20033;-84
2021/04/21 10:44:10;;;;;;;18.00;10.43;;;14.60;70.40;;;;;;4992558;28;20026;-83
2021/04/21 10:46:55;;;;;;;21.30;11.40;;;14.60;67.50;;;;;;4975132;28;20464;-82
2021/04/21 10:49:51;;;;;;;21.95;11.48;;;14.70;75.80;;;;;;4974731;28;20097;-82
2021/04/21 10:52:22;;;;;;;18.67;11.60;;;14.90;74.40;;;;;;4991229;28;20160;-83
2021/04/21 10:54:50;;;;;;;19.90;11.05;;;14.90;73.30;;;;;;4992764;28;20030;-83
2021/04/21 10:57:21;;;;;;;21.15;11.77;;;14.90;71.60;;;;;;4992603;28;20113;-83
2021/04/21 11:00:10;;;;;;;19.83;12.30;;;15.00;70.40;;;;;;4976150;28;20029;-85
2021/04/21 11:02:43;;;;;;;24.25;12.70;;;14.90;66.00;;;;;;5000593;28;20022;-85
2021/04/21 11:05:12;;;;;;;19.48;13.20;;;14.90;65.50;;;;;;4984297;28;20030;-85
2021/04/21 11:07:40;;;;;;;21.13;12.85;;;14.80;66.40;;;;;;4975751;28;20061;-84
2021/04/21 11:10:07;;;;;;;20.77;12.95;;;14.80;64.60;;;;;;4991724;28;20088;-83
2021/04/21 11:13:05;;;;;;;22.33;12.73;;;14.70;65.00;;;;;;4991639;28;20037;-83
2021/04/21 11:15:36;;;;;;;16.55;10.98;;;14.70;65.70;;;;;;4957405;28;20454;-84
2021/04/21 11:18:07;;;;;;;18.75;11.00;;;14.70;66.60;;;;;;4992739;28;20042;-84
2021/04/21 11:20:45;;;;;;;20.83;11.57;;;14.70;67.10;;;;;;4992244;28;20045;-83
2021/04/21 11:24:07;;;;;;;20.33;10.75;;;14.80;65.90;;;;;;4993008;28;20030;-83
2021/04/21 11:26:35;;;;;;;21.48;12.23;;;14.90;64.80;;;;;;4992692;28;20387;-83
2021/04/21 11:29:05;;;;;;;18.40;11.40;;;15.00;63.20;;;;;;4975041;28;20022;-84
2021/04/21 11:31:48;;;;;;;16.75;11.18;;;15.10;63.10;;;;;;4975108;28;20074;-83
2021/04/21 11:34:31;;;;;;;18.25;10.95;;;15.10;62.70;;;;;;4976639;28;20026;-82
2021/04/21 11:37:07;;;;;;;17.27;10.52;;;15.20;61.60;;;;;;4994655;28;20060;-82
2021/04/21 11:39:41;;;;;;;18.88;11.52;;;15.20;61.20;;;;;;4994089;28;20023;-82
2021/04/21 11:42:32;;;;;;;19.00;11.60;;;15.20;61.70;;;;;;4977766;28;20023;-83
2021/04/21 11:45:19;;;;;;;20.70;11.15;;;15.20;60.70;;;;;;4994991;28;20117;-83
2021/04/21 11:47:47;;;;;;;16.48;11.07;;;15.30;61.40;;;;;;4992481;28;20034;-82
2021/04/21 11:50:21;;;;;;;17.70;10.70;;;15.30;60.20;;;;;;4976754;28;20022;-82
2021/04/21 11:52:53;;;;;;;16.92;10.60;;;15.20;58.40;;;;;;4993594;28;20026;-82
2021/04/21 11:55:21;;;;;;;16.17;9.13;;;15.20;57.30;;;;;;4995514;28;20022;-82
2021/04/21 11:57:56;;;;;;;14.95;10.02;;;15.20;56.30;;;;;;4993633;28;20426;-82
2021/04/21 12:00:24;;;;;;;17.80;9.70;;;15.20;56.40;;;;;;4993368;28;20027;-83
2021/04/21 12:02:50;;;;;;;15.48;9.27;;;15.20;56.50;;;;;;4994273;28;20015;-82
2021/04/21 12:05:21;;;;;;;18.77;9.82;;;15.20;55.40;;;;;;4975122;28;20446;-83
2021/04/21 12:07:48;;;;;;;16.02;9.43;;;15.30;55.40;;;;;;4992482;28;20041;-82
2021/04/21 12:10:18;;;;;;;16.05;9.75;;;15.30;55.60;;;;;;4992553;28;20030;-82
2021/04/21 12:12:44;;;;;;;13.95;9.65;;;15.40;56.20;;;;;;4975149;28;20028;-83
2021/04/21 12:15:10;;;;;;;17.63;10.40;;;15.40;57.80;;;;;;4994751;28;20070;-83
2021/04/21 12:17:54;;;;;;;15.93;10.35;;;15.50;57.40;;;;;;4995591;28;20022;-83
2021/04/21 12:20:28;;;;;;;18.95;11.70;;;15.50;58.10;;;;;;4996910;28;20432;-83
2021/04/21 12:22:54;;;;;;;16.35;11.40;;;15.60;58.10;;;;;;4978367;28;20054;-84
2021/04/21 12:25:23;;;;;;;19.48;11.43;;;15.70;58.80;;;;;;4999124;28;20470;-83
2021/04/21 12:27:50;;;;;;;20.48;11.82;;;15.70;58.00;;;;;;4982036;28;20027;-83
2021/04/21 12:30:18;;;;;;;21.00;11.40;;;15.70;57.60;;;;;;5000152;28;20468;-83
2021/04/21 12:32:45;;;;;;;18.50;11.25;;;15.60;58.70;;;;;;4999518;28;20102;-83
2021/04/21 12:35:12;;;;;;;19.17;12.45;;;15.80;57.70;;;;;;4999412;28;20030;-83
2021/04/21 12:37:38;;;;;;;16.55;11.23;;;15.80;57.40;;;;;;4999178;28;20034;-85
2021/04/21 12:40:22;;;;;;;16.77;11.20;;;15.80;57.20;;;;;;4999216;28;20328;-83
2021/04/21 12:42:49;;;;;;;23.17;11.10;;;15.80;60.40;;;;;;4980013;28;20026;-86
2021/04/21 12:45:28;;;;;;;16.95;11.23;;;15.90;58.20;;;;;;4995902;28;20471;-85
2021/04/21 12:47:54;;;;;;;20.70;12.80;;;15.90;58.00;;;;;;4976781;28;20037;-86
2021/04/21 12:50:30;;;;;;;20.65;12.57;;;16.00;58.10;;;;;;4977123;28;20478;-85
2021/04/21 12:53:13;;;;;;;17.17;12.18;;;15.90;58.40;;;;;;4994135;28;20037;-84
2021/04/21 12:55:39;;;;;;;21.33;12.82;;;15.90;58.30;;;;;;4995288;28;20042;-82
2021/04/21 12:58:05;;;;;;;19.15;12.27;;;15.90;58.90;;;;;;4995019;28;20034;-82
2021/04/21 13:00:31;;;;;;;20.73;13.40;;;16.00;59.60;;;;;;4977519;28;20097;-83
2021/04/21 13:02:56;;;;;;;20.25;12.38;;;16.00;57.90;;;;;;4975843;28;20026;-82